createdAt,value
2023-07-24T00:01:30.189Z,1.80
2023-07-24T00:06:32.772Z,1.65
2023-07-24T00:11:35.185Z,1.23
2023-07-24T00:16:37.498Z,1.27
2023-07-24T00:21:39.775Z,1.50
2023-07-24T00:26:42.078Z,1.10
2023-07-24T00:31:44.323Z,2.40
2023-07-24T00:36:46.673Z,1.65
2023-07-24T00:41:48.848Z,1.73
2023-07-24T00:46:51.688Z,1.70
2023-07-24T00:51:56.438Z,2.00
2023-07-24T00:57:02.518Z,1.20
2023-07-24T01:02:05.010Z,1.30
2023-07-24T01:07:07.239Z,1.42
2023-07-24T01:13:06.108Z,1.20
2023-07-24T01:18:11.486Z,1.23
2023-07-24T01:23:22.461Z,2.13
2023-07-24T01:28:24.700Z,1.50
2023-07-24T01:33:27.838Z,1.90
2023-07-24T01:38:32.355Z,2.80
2023-07-24T01:43:35.832Z,1.27
2023-07-24T01:48:38.001Z,1.63
2023-07-24T01:53:40.568Z,1.60
2023-07-24T01:58:42.696Z,2.10
2023-07-24T02:03:45.014Z,1.38
2023-07-24T02:08:50.136Z,2.40
2023-07-24T02:13:52.371Z,1.83
2023-07-24T02:18:54.761Z,1.98
2023-07-24T02:23:56.970Z,1.77
2023-07-24T02:28:59.199Z,2.67
2023-07-24T02:34:01.407Z,1.83
2023-07-24T02:39:03.745Z,1.73
2023-07-24T02:44:05.998Z,2.78
2023-07-24T02:49:08.875Z,2.10
2023-07-24T02:54:11.061Z,1.98
2023-07-24T02:59:13.303Z,2.45
2023-07-24T03:04:15.517Z,2.97
2023-07-24T03:09:17.774Z,3.40
2023-07-24T03:14:19.984Z,2.35
2023-07-24T03:19:22.256Z,2.22
2023-07-24T03:24:24.628Z,1.95
2023-07-24T03:29:27.353Z,2.33
2023-07-24T03:34:29.537Z,1.88
2023-07-24T03:39:31.887Z,2.97
2023-07-24T03:44:34.117Z,2.60
2023-07-24T03:49:36.279Z,2.42
2023-07-24T03:54:39.177Z,2.30
2023-07-24T03:59:41.380Z,2.42
2023-07-24T04:04:43.649Z,1.90
2023-07-24T04:09:45.821Z,2.15
2023-07-24T04:14:49.971Z,3.15
2023-07-24T04:19:52.138Z,1.17
2023-07-24T04:24:54.353Z,1.10
2023-07-24T04:29:56.596Z,1.75
2023-07-24T04:34:58.729Z,1.63
2023-07-24T04:40:00.897Z,1.70
2023-07-24T04:45:03.552Z,1.73
2023-07-24T04:50:06.861Z,1.70
2023-07-24T04:55:10.255Z,1.55
2023-07-24T05:00:12.922Z,1.40
2023-07-24T05:05:15.155Z,2.15
2023-07-24T05:10:17.427Z,1.70
2023-07-24T05:15:19.644Z,1.45
2023-07-24T05:20:21.856Z,1.42
2023-07-24T05:25:24.038Z,1.92
2023-07-24T05:30:26.227Z,1.45
2023-07-24T05:35:28.625Z,2.50
2023-07-24T05:40:30.893Z,1.80
2023-07-24T05:45:33.118Z,2.08
2023-07-24T05:50:35.308Z,1.90
2023-07-24T05:55:37.485Z,2.03
2023-07-24T06:00:39.767Z,3.25
2023-07-24T06:05:42.040Z,2.13
2023-07-24T06:10:44.264Z,1.63
2023-07-24T06:15:49.986Z,3.25
2023-07-24T06:20:55.861Z,1.58
2023-07-24T06:25:58.209Z,1.95
2023-07-24T06:31:00.368Z,1.67
2023-07-24T06:36:02.507Z,2.28
2023-07-24T06:41:04.746Z,1.92
2023-07-24T06:46:06.986Z,2.50
2023-07-24T06:51:09.280Z,2.75
2023-07-24T06:56:11.582Z,1.88
2023-07-24T07:01:13.800Z,2.15
2023-07-24T07:11:21.083Z,1.80
2023-07-24T07:16:23.314Z,2.95
2023-07-24T07:21:25.621Z,2.25
2023-07-24T07:26:28.464Z,2.35
2023-07-24T07:31:30.978Z,1.92
2023-07-24T07:36:33.266Z,2.05
2023-07-24T07:41:35.615Z,1.80
2023-07-24T07:46:37.823Z,1.77
2023-07-24T07:51:40.020Z,2.70
2023-07-24T07:56:42.208Z,2.35
2023-07-24T08:01:46.466Z,2.28
2023-07-24T08:06:48.633Z,3.25
2023-07-24T08:11:51.827Z,1.63
2023-07-24T08:16:54.882Z,1.23
2023-07-24T08:21:57.191Z,1.17
2023-07-24T08:26:59.358Z,1.40
2023-07-24T08:32:01.704Z,2.22
2023-07-24T08:37:04.071Z,1.15
2023-07-24T08:42:10.718Z,0.80
2023-07-24T08:47:13.563Z,0.93
2023-07-24T08:52:30.745Z,0.82
2023-07-24T08:57:38.167Z,0.70
2023-07-24T09:02:40.402Z,1.20
2023-07-24T09:07:43.018Z,0.70
2023-07-24T09:12:45.625Z,1.38
2023-07-24T09:17:53.074Z,0.93
2023-07-24T09:23:14.125Z,1.25
2023-07-24T09:28:18.632Z,1.52
2023-07-24T09:33:20.930Z,1.27
2023-07-24T09:38:23.257Z,1.17
2023-07-24T09:43:39.739Z,1.98
2023-07-24T09:49:07.684Z,1.42
2023-07-24T09:54:17.323Z,1.30
2023-07-24T09:59:20.844Z,0.90
2023-07-24T10:04:25.728Z,0.98
2023-07-24T10:09:30.601Z,1.10
2023-07-24T10:14:33.532Z,1.08
2023-07-24T10:19:44.941Z,1.65
2023-07-24T10:24:48.117Z,2.67
2023-07-24T10:30:00.379Z,1.08
2023-07-24T10:35:10.104Z,0.98
2023-07-24T10:40:22.520Z,1.20
2023-07-24T10:45:24.932Z,1.10
2023-07-24T10:50:37.930Z,1.10
2023-07-24T10:55:40.302Z,1.55
2023-07-24T11:00:43.969Z,1.30
2023-07-24T11:05:47.924Z,1.55
2023-07-24T11:10:55.647Z,1.88
2023-07-24T11:16:08.968Z,1.60
2023-07-24T11:21:13.903Z,2.35
2023-07-24T11:26:16.974Z,1.20
2023-07-24T11:31:22.392Z,1.55
2023-07-24T11:36:25.130Z,1.83
2023-07-24T11:41:27.621Z,1.45
2023-07-24T11:46:32.999Z,1.48
2023-07-24T11:51:38.163Z,1.13
2023-07-24T11:56:40.393Z,1.08
2023-07-24T12:01:52.880Z,0.82
2023-07-24T12:06:55.120Z,1.00
2023-07-24T12:11:59.977Z,1.23
2023-07-24T12:17:10.904Z,1.38
2023-07-24T12:22:13.654Z,2.03
2023-07-24T12:27:15.886Z,0.95
2023-07-24T12:32:18.604Z,0.82
2023-07-24T12:37:21.369Z,1.58
2023-07-24T12:42:24.526Z,1.40
2023-07-24T12:47:26.680Z,0.90
2023-07-24T12:52:30.898Z,0.70
2023-07-24T12:57:33.228Z,0.80
2023-07-24T13:02:35.920Z,0.90
2023-07-24T13:07:38.096Z,0.88
2023-07-24T13:12:40.428Z,1.25
2023-07-24T13:17:43.486Z,1.25
2023-07-24T13:22:48.124Z,1.20
2023-07-24T13:27:51.506Z,0.63
2023-07-24T13:32:53.806Z,0.60
2023-07-24T13:38:04.890Z,1.02
2023-07-24T13:43:07.435Z,1.50
2023-07-24T13:48:09.621Z,1.23
2023-07-24T13:53:13.208Z,0.85
2023-07-24T13:58:15.770Z,1.27
2023-07-24T14:03:18.062Z,1.45
2023-07-24T14:08:20.269Z,1.15
2023-07-24T14:13:22.434Z,1.42
2023-07-24T14:18:24.643Z,1.10
2023-07-24T14:23:26.809Z,0.85
2023-07-24T14:28:29.016Z,1.15
2023-07-24T14:33:31.376Z,1.67
2023-07-24T14:38:33.602Z,0.55
2023-07-24T14:43:35.811Z,0.85
2023-07-24T14:48:38.033Z,0.52
2023-07-24T14:53:40.250Z,1.52
2023-07-24T14:58:46.253Z,0.47
2023-07-24T15:03:48.650Z,0.82
2023-07-24T15:08:56.777Z,1.05
2023-07-24T15:13:59.120Z,2.13
2023-07-24T15:19:01.292Z,1.15
2023-07-24T15:24:03.601Z,1.73
2023-07-24T15:29:05.792Z,0.73
2023-07-24T15:34:08.456Z,1.70
2023-07-24T15:39:10.684Z,0.50
2023-07-24T15:44:12.826Z,1.52
2023-07-24T15:49:15.253Z,1.08
2023-07-24T15:54:17.522Z,0.80
2023-07-24T15:59:19.686Z,1.33
2023-07-24T16:04:22.799Z,1.45
2023-07-24T16:09:25.721Z,0.98
2023-07-24T16:14:27.877Z,1.35
2023-07-24T16:19:30.195Z,1.60
2023-07-24T16:24:32.430Z,1.15
2023-07-24T16:29:35.595Z,1.45
2023-07-24T16:34:37.852Z,1.52
2023-07-24T16:39:40.378Z,1.60
2023-07-24T16:44:42.533Z,1.63
2023-07-24T16:49:44.830Z,1.60
2023-07-24T16:54:47.395Z,1.52
2023-07-24T16:59:49.848Z,1.35
2023-07-24T17:04:52.017Z,1.13
2023-07-24T17:09:54.238Z,1.10
2023-07-24T17:14:56.663Z,1.95
2023-07-24T17:19:58.778Z,1.00
2023-07-24T17:25:01.068Z,1.00
2023-07-24T17:30:04.243Z,1.40
2023-07-24T17:35:08.238Z,0.70
2023-07-24T17:40:10.920Z,0.40
2023-07-24T17:45:15.820Z,0.63
2023-07-24T17:50:18.304Z,0.60
2023-07-24T17:55:23.729Z,0.90
2023-07-24T18:00:45.695Z,1.30
2023-07-24T18:06:02.321Z,1.50
2023-07-24T18:11:11.191Z,1.08
2023-07-24T18:16:19.402Z,1.20
2023-07-24T18:21:21.742Z,1.20
2023-07-24T18:26:28.440Z,1.75
2023-07-24T18:31:33.284Z,1.05
2023-07-24T18:36:35.981Z,1.23
2023-07-24T18:41:38.218Z,1.08
2023-07-24T18:46:40.434Z,1.45
2023-07-24T18:51:42.606Z,1.27
2023-07-24T18:56:45.236Z,0.82
2023-07-24T19:01:48.212Z,0.75
2023-07-24T19:06:50.574Z,0.70
2023-07-24T19:11:59.252Z,0.90
2023-07-24T19:17:01.457Z,1.83
2023-07-24T19:22:04.696Z,1.20
2023-07-24T19:27:07.557Z,1.35
2023-07-24T19:32:09.782Z,1.98
2023-07-24T19:37:12.251Z,1.40
2023-07-24T19:42:14.502Z,1.85
2023-07-24T19:47:16.829Z,1.60
2023-07-24T19:52:38.397Z,2.00
2023-07-24T19:57:40.753Z,1.13
2023-07-24T20:02:43.337Z,2.00
2023-07-24T20:07:45.638Z,1.40
2023-07-24T20:12:47.854Z,1.40
2023-07-24T20:17:50.117Z,1.67
2023-07-24T20:22:52.326Z,1.38
2023-07-24T20:27:54.508Z,1.98
2023-07-24T20:32:56.881Z,1.42
2023-07-24T20:38:00.033Z,1.48
2023-07-24T20:43:03.913Z,1.60
2023-07-24T20:48:06.256Z,1.52
2023-07-24T20:53:08.582Z,2.78
2023-07-24T20:58:11.496Z,3.22
2023-07-24T21:03:13.704Z,3.53
2023-07-24T21:08:16.632Z,5.72
2023-07-24T21:13:19.295Z,4.72
2023-07-24T21:18:24.186Z,5.03
2023-07-24T21:23:26.910Z,4.65
2023-07-24T21:28:29.115Z,4.70
2023-07-24T21:33:31.291Z,4.55
2023-07-24T21:38:33.867Z,6.63
2023-07-24T21:43:36.142Z,5.10
2023-07-24T21:48:38.403Z,4.80
2023-07-24T21:53:40.676Z,4.82
2023-07-24T21:58:42.916Z,3.85
2023-07-24T22:03:45.116Z,4.40
2023-07-24T22:08:47.321Z,8.85
2023-07-24T22:13:49.530Z,5.63
2023-07-24T22:18:51.740Z,3.90
2023-07-24T22:23:54.814Z,4.40
2023-07-24T22:28:57.066Z,4.32
2023-07-24T22:33:59.304Z,7.82
2023-07-24T22:39:03.501Z,4.22
2023-07-24T22:44:07.051Z,6.32
2023-07-24T22:49:09.200Z,5.45
2023-07-24T22:54:11.389Z,5.03
2023-07-24T22:59:25.587Z,4.03
2023-07-24T23:04:27.925Z,4.68
2023-07-24T23:09:30.860Z,4.65
2023-07-24T23:14:33.089Z,3.45
2023-07-24T23:19:35.324Z,4.10
2023-07-24T23:24:37.575Z,4.03
2023-07-24T23:29:39.766Z,3.85
2023-07-24T23:34:41.928Z,3.22
2023-07-24T23:39:44.106Z,4.00
2023-07-24T23:44:46.246Z,2.97
2023-07-24T23:49:48.424Z,3.95
2023-07-24T23:54:50.603Z,2.90
2023-07-24T23:59:52.796Z,2.85
